Flight Track Log - Related Links

Times and Time Zones

All times are in EDT time to prevent confusion due to time zone crossing. See the SWA22 flight status page for this flight to view local times or setup timezone preferences in your user account.

Time Position Orientation Groundspeed Altitude Reporting Facility
EDT Latitude Longitude Course Direction KTS MPH feet Rate Location/Type
Thu 12:40:09 PM 29.6353 -95.2892 334° Northwest 163 188 600  Level Houston Center
Thu 12:41:05 PM 29.6597 -95.3031 334° Northwest 174 200 2,300 1,897 Climbing Houston Center
Thu 12:42:06 PM 29.7211 -95.2836 15° North 243 280 4,300 2,444 Climbing Houston Center
Thu 12:43:20 PM 29.8097 -95.2831 360° North 267 307 7,800 3,317 Climbing Houston Center
Thu 12:44:09 PM 29.8717 -95.3014 346° North 277 319 11,100 3,097 Climbing Houston Center
Thu 12:45:24 PM 29.9686 -95.3267 347° North 307 353 14,200 2,628 Climbing Houston Center
Thu 12:46:26 PM 30.0581 -95.3497 347° North 325 374 17,100 2,565 Climbing Houston Center
Thu 12:47:28 PM 30.1547 -95.3756 347° North 350 403 19,500 2,544 Climbing Houston Center
Thu 12:48:31 PM 30.2736 -95.4081 347° North 365 420 22,400 2,208 Climbing Houston Center
Thu 12:49:33 PM 30.3781 -95.4367 347° North 382 440 24,100 1,935 Climbing Houston Center
Thu 12:50:35 PM 30.4875 -95.4658 347° North 398 458 26,400 1,887 Climbing Houston Center
Thu 12:51:37 PM 30.5983 -95.4908 349° North 405 466 28,000 774 Climbing Houston Center
Thu 12:52:39 PM 30.7339 -95.5194 350° North 419 482 28,000  Level Houston Center
Thu 12:53:41 PM 30.8489 -95.5458 349° North 418 481 28,000  Level Houston Center
Thu 12:54:43 PM 30.9631 -95.5722 349° North 414 476 28,000  Level Houston Center
Thu 12:55:46 PM 31.0742 -95.5975 349° North 409 471 28,000 -48 Level Houston Center
Thu 12:56:48 PM 31.1850 -95.6231 349° North 405 466 27,900 -532 Descending Houston Center
Thu 12:57:50 PM 31.2919 -95.6467 349° North 396 456 26,900 -968 Descending Houston Center
Thu 12:58:52 PM 31.3933 -95.6875 341° North 388 447 25,900 -1,065 Descending Houston Center
Thu 12:59:54 PM 31.5042 -95.7603 331° Northwest 377 434 24,700 -958 Descending Houston Center
Thu 01:00:51 PM 31.5811 -95.8111 331° Northwest 381 438 24,000 -359 Descending Fort Worth Center
Thu 01:01:51 PM 31.6672 -95.8683 331° Northwest 376 433 24,000 -50 Level Fort Worth Center
Thu 01:02:51 PM 31.7600 -95.9353 328° Northwest 376 433 23,900 -650 Descending Fort Worth Center
Thu 01:03:51 PM 31.8525 -95.9947 331° Northwest 376 433 22,700 -1,650 Descending Fort Worth Center
Thu 01:04:51 PM 31.9389 -96.0497 332° Northwest 365 420 20,600 -2,150 Descending Fort Worth Center
Thu 01:05:51 PM 32.0272 -96.1122 329° Northwest 346 398 18,400 -2,300 Descending Fort Worth Center
Thu 01:06:51 PM 32.1092 -96.1675 330° Northwest 341 392 16,000 -2,750 Descending Fort Worth Center
Thu 01:07:51 PM 32.1889 -96.2203 331° Northwest 336 387 12,900 -2,850 Descending Fort Worth Center
Thu 01:08:51 PM 32.2728 -96.2708 333° Northwest 336 387 10,300 -1,500 Descending Fort Worth Center
Thu 01:09:51 PM 32.3381 -96.3119 332° Northwest 312 359 9,900 -600 Descending Fort Worth Center
Thu 01:10:51 PM 32.4053 -96.3578 330° Northwest 268 308 9,100 -750 Descending Fort Worth Center
Thu 01:11:51 PM 32.4558 -96.4089 320° Northwest 258 297 8,400 -1,300 Descending Fort Worth Center
Thu 01:12:51 PM 32.5125 -96.4747 316° Northwest 253 291 6,500 -1,650 Descending Fort Worth Center
Thu 01:13:51 PM 32.5589 -96.5261 317° Northwest 253 291 5,100 -1,250 Descending Fort Worth Center
Thu 01:14:51 PM 32.6136 -96.5897 316° Northwest 248 285 4,000 -500 Descending Fort Worth Center
Thu 01:15:51 PM 32.6494 -96.6314 316° Northwest 224 258 4,100 -76 Climbing Fort Worth Center
Thu 01:16:10 PM 32.6667 -96.6500 318° Northwest 213 245 3,900 -911 Descending Dallas / Fort Worth TRACON
Thu 01:17:10 PM 32.7167 -96.7000 320° Northwest 219 252 2,900 -762 Descending Dallas / Fort Worth TRACON
Thu 01:18:16 PM 32.7500 -96.7500 308° West 193 222 2,300 -496 Descending Dallas / Fort Worth TRACON
Thu 01:19:11 PM 32.7833 -96.7833 320° Northwest 168 193 1,900 -574 Descending Dallas / Fort Worth TRACON
Thu 01:20:11 PM 32.8167 -96.8167 320° Northwest 120 138 1,200 -700 Descending Dallas / Fort Worth TRACON

Login

Don't have an account? Register now (free) for customized features, flight alerts, and more!